Time;durP1;ratioP1;P1;durP2;ratioP2;P2;SDS_P1;SDS_P2;PMS_P1;PMS_P2;Temp;Humidity;BMP_temperature;BMP_pressure;BME280_temperature;BME280_humidity;BME280_pressure;Samples;Min_cycle;Max_cycle;Signal;HPM_P1;HPM_P2
2021/01/20 00:00:19;;;;;;;3.33;1.42;;;2.50;92.20;;;;;;5008233;28;20046;-82
2021/01/20 00:02:44;;;;;;;2.50;1.35;;;2.60;92.20;;;;;;5003793;28;20145;-83
2021/01/20 00:05:10;;;;;;;3.30;1.20;;;2.60;92.50;;;;;;5010367;28;20073;-83
2021/01/20 00:07:36;;;;;;;3.15;1.50;;;2.40;94.00;;;;;;5014307;28;20040;-83
2021/01/20 00:10:02;;;;;;;2.72;1.40;;;2.40;93.50;;;;;;5006288;28;20053;-83
2021/01/20 00:12:28;;;;;;;4.15;1.60;;;2.40;94.60;;;;;;5003971;28;20041;-82
2021/01/20 00:14:53;;;;;;;3.28;1.70;;;2.50;94.50;;;;;;5007489;28;20042;-84
2021/01/20 00:17:19;;;;;;;2.85;1.48;;;2.60;93.90;;;;;;5007811;28;20080;-83
2021/01/20 00:19:45;;;;;;;3.22;1.58;;;2.90;93.40;;;;;;5008843;28;20826;-82
2021/01/20 00:22:12;;;;;;;4.63;1.98;;;3.30;92.10;;;;;;5015212;28;20582;-80
2021/01/20 00:24:38;;;;;;;4.13;1.48;;;3.20;91.80;;;;;;5021658;28;20042;-82
2021/01/20 00:27:08;;;;;;;2.30;1.27;;;3.20;92.60;;;;;;5022803;28;20026;-82
2021/01/20 00:29:34;;;;;;;3.80;1.30;;;3.20;92.70;;;;;;5022890;28;20046;-83
2021/01/20 00:32:00;;;;;;;4.05;1.70;;;3.30;92.30;;;;;;5010581;28;20054;-82
2021/01/20 00:34:27;;;;;;;4.25;1.45;;;3.60;91.10;;;;;;5016576;28;20045;-81
2021/01/20 00:36:52;;;;;;;3.58;1.38;;;3.70;90.90;;;;;;5011691;28;20029;-81
2021/01/20 00:39:18;;;;;;;3.15;1.63;;;3.70;91.50;;;;;;5012952;28;20065;-81
2021/01/20 00:41:45;;;;;;;1.48;1.00;;;3.70;90.80;;;;;;5017899;28;20037;-82
2021/01/20 00:44:11;;;;;;;2.53;1.20;;;3.70;91.00;;;;;;5015399;28;20030;-82
2021/01/20 00:46:37;;;;;;;8.93;1.63;;;3.60;91.30;;;;;;5012372;28;20041;-80
2021/01/20 00:49:03;;;;;;;2.38;1.42;;;3.80;91.00;;;;;;5010860;28;20038;-82
2021/01/20 00:51:28;;;;;;;4.28;1.45;;;3.70;90.70;;;;;;5001738;28;20069;-81
2021/01/20 00:53:54;;;;;;;2.08;1.10;;;3.60;90.90;;;;;;5000583;28;20878;-81
2021/01/20 00:56:19;;;;;;;4.43;1.83;;;3.60;91.60;;;;;;5034585;23;20046;-79
2021/01/20 00:58:45;;;;;;;5.32;1.40;;;3.60;91.30;;;;;;4993508;28;20133;-79
2021/01/20 01:01:10;;;;;;;4.20;1.58;;;3.60;91.60;;;;;;5008963;28;20499;-79
2021/01/20 01:03:36;;;;;;;4.70;1.50;;;3.60;91.40;;;;;;4994493;28;20038;-79
2021/01/20 01:06:02;;;;;;;9.52;1.60;;;3.70;91.30;;;;;;4983403;28;20034;-80
2021/01/20 01:08:27;;;;;;;4.03;1.67;;;3.60;91.60;;;;;;4976363;28;20034;-78
2021/01/20 01:10:53;;;;;;;4.63;1.70;;;3.60;91.20;;;;;;4976892;28;20034;-78
2021/01/20 01:13:20;;;;;;;3.50;1.70;;;3.70;91.20;;;;;;4974966;28;20407;-79
2021/01/20 01:15:45;;;;;;;3.30;1.50;;;3.60;91.50;;;;;;4975184;28;20034;-78
2021/01/20 01:18:11;;;;;;;5.28;1.40;;;3.50;91.70;;;;;;4974480;28;20042;-78
2021/01/20 01:20:37;;;;;;;3.08;1.48;;;3.50;91.90;;;;;;4973728;28;20044;-80
2021/01/20 01:23:03;;;;;;;2.35;1.35;;;3.40;91.90;;;;;;4973441;28;20512;-79
2021/01/20 01:25:28;;;;;;;3.28;1.38;;;3.50;92.10;;;;;;4968970;28;20034;-79
2021/01/20 01:27:54;;;;;;;2.45;1.13;;;3.60;92.10;;;;;;4969961;28;20487;-79
2021/01/20 01:30:20;;;;;;;2.97;1.40;;;3.60;91.90;;;;;;4972255;28;20047;-80
2021/01/20 01:32:45;;;;;;;2.58;1.33;;;3.60;91.90;;;;;;4969127;28;20050;-79
2021/01/20 01:35:12;;;;;;;3.80;1.67;;;3.70;91.90;;;;;;4970629;28;20038;-79
2021/01/20 01:37:37;;;;;;;2.97;1.52;;;3.70;91.70;;;;;;4965980;28;20039;-79
2021/01/20 01:40:05;;;;;;;3.55;1.60;;;3.70;91.90;;;;;;4981391;28;20054;-79
2021/01/20 01:42:31;;;;;;;2.65;1.73;;;3.70;91.90;;;;;;4967334;28;20042;-80
2021/01/20 01:44:57;;;;;;;4.53;1.63;;;3.80;91.90;;;;;;4981309;28;20043;-79
2021/01/20 01:47:23;;;;;;;3.42;1.33;;;3.80;91.70;;;;;;4966948;28;20039;-80
2021/01/20 01:49:49;;;;;;;7.00;1.30;;;3.80;91.90;;;;;;4965767;28;20562;-78
2021/01/20 01:52:15;;;;;;;2.92;1.45;;;3.80;91.90;;;;;;4967412;28;20159;-79
2021/01/20 01:54:41;;;;;;;1.95;1.15;;;3.70;92.20;;;;;;4967270;28;20031;-79
2021/01/20 01:57:07;;;;;;;5.82;1.58;;;3.70;92.10;;;;;;4968817;28;20045;-79
2021/01/20 01:59:32;;;;;;;2.25;1.20;;;3.70;92.30;;;;;;4972328;28;20054;-80
2021/01/20 02:01:58;;;;;;;3.88;1.17;;;3.60;92.50;;;;;;4969670;28;20038;-80
2021/01/20 02:04:24;;;;;;;2.83;1.20;;;3.60;92.30;;;;;;4973623;28;20114;-79
2021/01/20 02:06:57;;;;;;;4.97;1.45;;;3.60;92.80;;;;;;4971316;28;20037;-79
2021/01/20 02:09:24;;;;;;;5.17;1.90;;;3.60;92.70;;;;;;4989220;28;20599;-79
2021/01/20 02:12:04;;;;;;;2.00;1.33;;;3.70;92.80;;;;;;4973398;28;20121;-79
2021/01/20 02:14:41;;;;;;;3.80;1.33;;;3.60;92.80;;;;;;4988938;28;20090;-79
2021/01/20 02:17:21;;;;;;;3.67;1.45;;;3.70;92.70;;;;;;4973876;28;20037;-79
2021/01/20 02:20:11;;;;;;;3.35;1.52;;;3.70;92.60;;;;;;4974736;28;20034;-79
2021/01/20 02:22:49;;;;;;;1.75;0.93;;;3.80;92.30;;;;;;4971452;28;20586;-80
2021/01/20 02:25:33;;;;;;;4.50;1.83;;;3.90;92.30;;;;;;4974929;28;20038;-78
2021/01/20 02:28:07;;;;;;;3.20;1.35;;;3.90;92.30;;;;;;4968537;28;20045;-78
2021/01/20 02:30:35;;;;;;;3.88;1.23;;;3.70;92.50;;;;;;4967859;28;20035;-80
2021/01/20 02:33:02;;;;;;;2.22;1.10;;;3.60;92.90;;;;;;4987370;28;20114;-79
2021/01/20 02:35:29;;;;;;;3.83;1.60;;;3.50;93.40;;;;;;4970807;28;20027;-80
2021/01/20 02:37:56;;;;;;;2.15;1.08;;;3.50;93.90;;;;;;4986058;28;20117;-79
2021/01/20 02:40:22;;;;;;;3.80;1.30;;;3.60;93.80;;;;;;4988817;28;20174;-79
2021/01/20 02:42:48;;;;;;;2.30;1.20;;;3.60;93.60;;;;;;4968513;28;20105;-79
2021/01/20 02:45:15;;;;;;;3.53;1.20;;;3.80;93.30;;;;;;4964162;28;20039;-79
2021/01/20 02:47:42;;;;;;;2.88;1.40;;;3.80;93.30;;;;;;4963317;28;20031;-78
2021/01/20 02:50:09;;;;;;;3.25;1.60;;;3.80;93.40;;;;;;4967779;28;20041;-78
2021/01/20 02:52:34;;;;;;;5.22;2.10;;;3.80;93.10;;;;;;4965190;28;20030;-79
2021/01/20 02:55:03;;;;;;;4.90;2.08;;;3.90;93.20;;;;;;4967086;28;20085;-78
2021/01/20 02:57:32;;;;;;;2.65;1.08;;;3.90;92.90;;;;;;4970286;28;20034;-79
2021/01/20 03:00:00;;;;;;;3.05;1.50;;;4.00;92.80;;;;;;4984247;28;20042;-79
2021/01/20 03:02:27;;;;;;;4.00;1.60;;;4.00;92.80;;;;;;4972279;28;20039;-79
2021/01/20 03:04:57;;;;;;;3.30;1.30;;;3.90;92.90;;;;;;4970933;28;20525;-79
2021/01/20 03:07:24;;;;;;;3.17;1.50;;;4.00;92.80;;;;;;4973793;28;20053;-79
2021/01/20 03:09:50;;;;;;;6.13;1.70;;;3.80;92.80;;;;;;4974318;28;20519;-79
2021/01/20 03:12:16;;;;;;;4.85;1.50;;;3.90;93.00;;;;;;4971546;28;20046;-79
2021/01/20 03:14:44;;;;;;;3.15;1.35;;;4.10;92.50;;;;;;4974776;28;20141;-79
2021/01/20 03:17:10;;;;;;;2.47;1.38;;;4.00;92.40;;;;;;4990541;28;20064;-79
2021/01/20 03:19:35;;;;;;;5.45;1.77;;;4.10;92.20;;;;;;4975230;28;20646;-80
2021/01/20 03:22:01;;;;;;;7.57;1.85;;;4.30;91.90;;;;;;4976826;28;22243;-79
2021/01/20 03:24:26;;;;;;;4.53;1.38;;;4.20;92.00;;;;;;4986556;28;20035;-79
2021/01/20 03:26:52;;;;;;;4.07;1.50;;;4.20;92.20;;;;;;4961640;28;20039;-79
2021/01/20 03:29:17;;;;;;;3.17;1.05;;;4.20;92.00;;;;;;4976251;28;20082;-79
2021/01/20 03:31:43;;;;;;;2.63;1.05;;;4.20;91.80;;;;;;4945349;28;20113;-79
2021/01/20 03:34:08;;;;;;;1.85;1.00;;;4.30;91.80;;;;;;4936101;28;20037;-79
2021/01/20 03:36:34;;;;;;;2.42;1.40;;;4.30;91.80;;;;;;4966060;28;20038;-79
2021/01/20 03:39:00;;;;;;;3.10;1.48;;;4.30;91.80;;;;;;4963558;28;20108;-79
2021/01/20 03:41:25;;;;;;;2.88;1.00;;;4.30;91.80;;;;;;4964694;28;21782;-80
2021/01/20 03:43:51;;;;;;;2.17;1.20;;;4.30;91.60;;;;;;4951773;28;20109;-78
2021/01/20 03:46:17;;;;;;;4.35;1.90;;;4.10;91.80;;;;;;4941609;28;20030;-78
2021/01/20 03:48:42;;;;;;;4.22;1.70;;;4.00;92.00;;;;;;4954746;28;20043;-78
2021/01/20 03:51:08;;;;;;;2.33;1.40;;;4.00;92.20;;;;;;4957142;28;20038;-79
2021/01/20 03:53:33;;;;;;;2.55;1.50;;;4.00;92.30;;;;;;4935970;28;20105;-77
2021/01/20 03:55:59;;;;;;;7.32;2.15;;;3.90;92.30;;;;;;4963725;28;20045;-78
2021/01/20 03:58:24;;;;;;;4.20;1.50;;;3.90;92.50;;;;;;4934337;28;20138;-78
2021/01/20 04:00:50;;;;;;;2.50;1.38;;;3.80;92.60;;;;;;4927157;28;20038;-78
2021/01/20 04:03:16;;;;;;;3.88;1.50;;;3.80;92.80;;;;;;4946467;28;20046;-78
2021/01/20 04:05:41;;;;;;;2.95;1.42;;;3.80;92.80;;;;;;4964105;28;20127;-78
2021/01/20 04:08:07;;;;;;;2.65;1.40;;;3.70;93.30;;;;;;4964986;28;20113;-78
2021/01/20 04:10:32;;;;;;;1.83;1.08;;;3.60;93.20;;;;;;4950591;28;20498;-78
2021/01/20 04:12:58;;;;;;;2.58;1.50;;;3.60;93.40;;;;;;4949712;28;20034;-79
2021/01/20 04:15:23;;;;;;;2.38;1.00;;;3.60;93.80;;;;;;4936799;28;20142;-79
2021/01/20 04:17:49;;;;;;;2.60;1.55;;;3.50;94.00;;;;;;4975077;28;20150;-78
2021/01/20 04:20:14;;;;;;;3.10;1.50;;;3.50;93.90;;;;;;4959789;28;20057;-78
2021/01/20 04:22:40;;;;;;;4.15;1.65;;;3.30;95.10;;;;;;4934811;28;20035;-77
2021/01/20 04:25:06;;;;;;;3.40;1.55;;;3.50;94.50;;;;;;4955963;28;20105;-78
2021/01/20 04:27:33;;;;;;;4.18;1.98;;;3.50;94.30;;;;;;4956318;28;20035;-79
2021/01/20 04:29:58;;;;;;;4.70;1.70;;;3.50;94.60;;;;;;4932076;28;20576;-79
2021/01/20 04:32:24;;;;;;;3.40;1.52;;;3.40;95.40;;;;;;4984166;28;20077;-78
2021/01/20 04:34:49;;;;;;;3.65;2.00;;;3.50;94.90;;;;;;4976819;28;20043;-79
2021/01/20 04:37:15;;;;;;;3.40;1.85;;;3.50;94.80;;;;;;4958806;28;20051;-79
2021/01/20 04:39:40;;;;;;;2.78;1.30;;;3.60;94.70;;;;;;4956709;28;20732;-78
2021/01/20 04:42:06;;;;;;;3.72;1.60;;;3.60;94.50;;;;;;4978793;28;20499;-79
2021/01/20 04:44:33;;;;;;;3.92;1.63;;;3.60;94.60;;;;;;4954669;28;21030;-77
2021/01/20 04:47:00;;;;;;;3.10;1.42;;;3.50;95.00;;;;;;4948332;28;20045;-79
2021/01/20 04:49:26;;;;;;;2.28;1.42;;;3.40;95.10;;;;;;4961835;28;20049;-79
2021/01/20 04:51:56;;;;;;;4.47;1.88;;;3.30;95.30;;;;;;4961489;28;20115;-79
2021/01/20 04:54:21;;;;;;;2.20;1.40;;;3.30;95.60;;;;;;4975630;28;20042;-80
2021/01/20 04:56:48;;;;;;;3.00;1.58;;;3.20;96.30;;;;;;4969473;28;20507;-79
2021/01/20 04:59:15;;;;;;;3.90;1.70;;;3.10;96.80;;;;;;4963693;28;20031;-79
2021/01/20 05:01:41;;;;;;;3.83;1.63;;;3.10;97.40;;;;;;4974358;28;20031;-79
2021/01/20 05:04:09;;;;;;;3.67;1.52;;;3.10;97.20;;;;;;4971452;28;20030;-80
2021/01/20 05:06:35;;;;;;;2.55;1.50;;;3.10;98.30;;;;;;4929595;28;20050;-79
2021/01/20 05:09:00;;;;;;;5.22;1.67;;;3.10;98.90;;;;;;4953412;28;20031;-79
2021/01/20 05:11:40;;;;;;;3.83;1.20;;;3.10;98.70;;;;;;4952854;28;20042;-79
2021/01/20 05:14:09;;;;;;;3.70;1.42;;;3.10;98.70;;;;;;4929804;28;20450;-79
2021/01/20 05:16:35;;;;;;;3.25;1.63;;;3.20;98.60;;;;;;4971158;28;20098;-80
2021/01/20 05:19:00;;;;;;;2.67;1.35;;;3.20;99.10;;;;;;4942119;28;20053;-80
2021/01/20 05:21:28;;;;;;;4.38;1.52;;;3.10;98.90;;;;;;4958112;28;20565;-79
2021/01/20 05:23:54;;;;;;;2.75;1.40;;;3.10;99.40;;;;;;4927240;28;20038;-80
2021/01/20 05:26:19;;;;;;;2.28;1.27;;;3.10;99.90;;;;;;4940310;28;20156;-79
2021/01/20 05:28:45;;;;;;;4.25;1.15;;;3.10;99.90;;;;;;4983104;28;20053;-79
2021/01/20 05:31:26;;;;;;;4.78;1.88;;;3.10;99.90;;;;;;4932039;28;20621;-79
2021/01/20 05:33:52;;;;;;;3.40;1.67;;;3.20;99.90;;;;;;4968437;28;20408;-78
2021/01/20 05:36:17;;;;;;;4.55;1.75;;;3.40;99.90;;;;;;4967601;28;20038;-79
2021/01/20 05:38:45;;;;;;;4.60;1.90;;;3.60;99.40;;;;;;4982011;28;20045;-80
2021/01/20 05:41:29;;;;;;;4.40;1.35;;;3.50;99.30;;;;;;4968069;28;20043;-79
2021/01/20 05:44:12;;;;;;;4.47;1.75;;;3.70;98.20;;;;;;4969568;28;20228;-80
2021/01/20 05:46:40;;;;;;;2.90;1.58;;;3.80;98.00;;;;;;4965909;28;20038;-80
2021/01/20 05:49:06;;;;;;;3.25;1.45;;;4.10;95.80;;;;;;4964101;28;20031;-80
2021/01/20 05:51:42;;;;;;;2.50;1.27;;;4.20;94.40;;;;;;4965558;28;20046;-80
2021/01/20 05:54:09;;;;;;;2.50;1.15;;;4.20;94.70;;;;;;4968141;28;20092;-79
2021/01/20 05:56:35;;;;;;;2.45;1.40;;;4.30;93.90;;;;;;4966386;28;20054;-80
2021/01/20 05:59:01;;;;;;;7.53;1.67;;;4.30;93.50;;;;;;4965007;28;20042;-79
2021/01/20 06:01:27;;;;;;;4.22;1.52;;;4.50;92.80;;;;;;4967543;28;20039;-80
2021/01/20 06:03:53;;;;;;;3.80;1.48;;;4.50;92.00;;;;;;4980278;28;20069;-80
2021/01/20 06:06:20;;;;;;;7.40;1.65;;;4.60;91.10;;;;;;4964878;28;20058;-79
2021/01/20 06:08:47;;;;;;;6.95;1.60;;;4.80;90.20;;;;;;4981081;28;20158;-78
2021/01/20 06:11:13;;;;;;;3.40;1.55;;;4.70;90.10;;;;;;4979961;28;20558;-79
2021/01/20 06:13:39;;;;;;;5.18;1.52;;;4.80;89.20;;;;;;4971623;28;20122;-77
2021/01/20 06:16:20;;;;;;;3.75;1.83;;;4.80;89.50;;;;;;4967145;28;20926;-77
2021/01/20 06:19:00;;;;;;;3.53;1.65;;;4.80;89.40;;;;;;4969705;28;20122;-78
2021/01/20 06:21:27;;;;;;;4.63;1.50;;;4.80;89.20;;;;;;4988640;28;20038;-77
2021/01/20 06:24:06;;;;;;;5.25;1.70;;;4.70;90.30;;;;;;4965221;28;20045;-77
2021/01/20 06:26:35;;;;;;;2.65;1.52;;;4.70;90.00;;;;;;4966452;28;20051;-78
2021/01/20 06:29:04;;;;;;;5.60;2.08;;;4.70;90.30;;;;;;4966350;28;20035;-75
2021/01/20 06:31:37;;;;;;;5.50;2.22;;;4.90;89.00;;;;;;4965413;28;20039;-75
2021/01/20 06:34:06;;;;;;;5.90;2.22;;;4.90;88.30;;;;;;4965590;28;20031;-74
2021/01/20 06:36:33;;;;;;;11.73;2.72;;;4.90;88.20;;;;;;4965706;28;20031;-76
2021/01/20 06:38:59;;;;;;;8.80;2.20;;;4.90;88.40;;;;;;4966317;28;20105;-75
2021/01/20 06:41:43;;;;;;;5.35;1.90;;;5.00;86.60;;;;;;4970421;28;20047;-76
2021/01/20 06:44:14;;;;;;;7.03;2.37;;;5.00;86.30;;;;;;4970371;28;20730;-76
2021/01/20 06:47:02;;;;;;;5.53;2.03;;;5.00;85.90;;;;;;4967566;28;20134;-77
2021/01/20 06:49:30;;;;;;;7.72;2.00;;;5.00;86.10;;;;;;4964502;28;20031;-77
2021/01/20 06:52:15;;;;;;;7.47;2.20;;;5.10;85.20;;;;;;4967849;28;20041;-76
2021/01/20 06:54:46;;;;;;;7.70;2.25;;;5.00;85.60;;;;;;4968960;28;20045;-77
2021/01/20 06:57:27;;;;;;;4.47;1.98;;;5.00;85.60;;;;;;4969243;28;20055;-78
2021/01/20 07:00:07;;;;;;;4.68;1.88;;;5.00;85.50;;;;;;4965508;28;20035;-76
2021/01/20 07:02:34;;;;;;;3.35;1.60;;;5.00;85.50;;;;;;4969259;28;20065;-75
2021/01/20 07:05:00;;;;;;;3.40;1.85;;;4.90;86.60;;;;;;4969845;28;20518;-75
2021/01/20 07:07:54;;;;;;;5.88;2.08;;;4.80;87.30;;;;;;4967655;28;20041;-76
2021/01/20 07:10:21;;;;;;;2.90;1.80;;;4.90;86.00;;;;;;4967848;28;20491;-75
2021/01/20 07:13:08;;;;;;;3.28;1.30;;;4.90;86.80;;;;;;4967876;28;20034;-76
2021/01/20 07:15:38;;;;;;;4.53;1.48;;;4.90;86.60;;;;;;4968646;28;20030;-77
2021/01/20 07:18:08;;;;;;;3.53;1.63;;;5.00;85.70;;;;;;4970791;28;20031;-78
2021/01/20 07:20:34;;;;;;;4.25;1.70;;;5.00;84.30;;;;;;4972429;28;20048;-75
2021/01/20 07:23:00;;;;;;;3.78;1.70;;;5.10;84.80;;;;;;4970953;28;20042;-77
2021/01/20 07:25:27;;;;;;;5.38;1.60;;;5.00;85.80;;;;;;4968829;28;20038;-76
2021/01/20 07:27:53;;;;;;;6.22;2.00;;;5.00;85.70;;;;;;4973939;28;20045;-76
2021/01/20 07:30:19;;;;;;;4.60;1.98;;;5.00;86.20;;;;;;4969173;28;20057;-76
2021/01/20 07:32:45;;;;;;;6.00;2.53;;;5.10;83.50;;;;;;4970432;28;20034;-76
2021/01/20 07:35:22;;;;;;;6.25;2.00;;;5.40;81.30;;;;;;4970785;28;20026;-76
2021/01/20 07:38:04;;;;;;;4.10;1.88;;;5.40;80.80;;;;;;4968764;28;20178;-79
2021/01/20 07:40:32;;;;;;;6.03;1.73;;;5.30;82.30;;;;;;4984286;28;20049;-79
2021/01/20 07:42:58;;;;;;;3.40;1.58;;;5.30;81.90;;;;;;4983457;28;20049;-77
2021/01/20 07:45:33;;;;;;;4.75;1.90;;;5.30;81.30;;;;;;4968561;28;20558;-77
2021/01/20 07:47:59;;;;;;;2.15;1.33;;;5.30;82.90;;;;;;4968343;28;20045;-77
2021/01/20 07:50:41;;;;;;;3.22;1.30;;;5.50;80.40;;;;;;4972694;28;20058;-77
2021/01/20 07:53:10;;;;;;;5.93;1.48;;;5.40;81.70;;;;;;4969653;28;20808;-77
2021/01/20 07:55:36;;;;;;;5.55;2.00;;;5.40;81.80;;;;;;4970315;28;20492;-78
2021/01/20 07:58:02;;;;;;;4.18;1.75;;;5.40;81.10;;;;;;4969937;28;20191;-78
2021/01/20 08:00:28;;;;;;;4.80;2.42;;;5.50;80.80;;;;;;4974266;28;20040;-77
2021/01/20 08:02:54;;;;;;;4.60;2.13;;;5.50;80.70;;;;;;4976124;28;20053;-77
2021/01/20 08:05:20;;;;;;;4.60;1.85;;;5.60;79.80;;;;;;4972776;28;20042;-76
2021/01/20 08:07:45;;;;;;;3.38;1.77;;;5.80;77.90;;;;;;4973808;28;20125;-76
2021/01/20 08:10:21;;;;;;;5.43;2.22;;;5.70;79.20;;;;;;4974696;28;20031;-76
2021/01/20 08:12:50;;;;;;;7.63;2.80;;;5.70;79.50;;;;;;4989896;28;20034;-77
2021/01/20 08:15:16;;;;;;;8.00;1.50;;;5.70;80.70;;;;;;4973316;28;20046;-77
2021/01/20 08:17:43;;;;;;;4.90;1.60;;;5.60;81.50;;;;;;4975434;28;20134;-75
2021/01/20 08:20:11;;;;;;;4.53;2.03;;;5.80;78.20;;;;;;4975458;28;20054;-75
2021/01/20 08:22:39;;;;;;;4.75;2.00;;;6.00;76.80;;;;;;4975052;28;20439;-76
2021/01/20 08:25:08;;;;;;;4.75;1.90;;;6.00;76.80;;;;;;4976083;28;20101;-76
2021/01/20 08:27:37;;;;;;;5.28;2.03;;;6.00;75.60;;;;;;4974289;28;20723;-74
2021/01/20 08:30:04;;;;;;;9.20;1.50;;;6.00;77.20;;;;;;4973728;28;20046;-75
2021/01/20 08:32:30;;;;;;;6.03;1.90;;;5.90;77.70;;;;;;4975037;28;20554;-77
2021/01/20 08:34:58;;;;;;;3.67;1.65;;;6.00;75.70;;;;;;4976883;28;20034;-75
2021/01/20 08:37:34;;;;;;;3.33;1.80;;;6.00;75.30;;;;;;4974276;28;20050;-76
2021/01/20 08:40:03;;;;;;;5.05;1.75;;;6.10;76.00;;;;;;4975470;28;20057;-76
2021/01/20 08:42:35;;;;;;;5.57;2.05;;;6.10;75.20;;;;;;4991184;28;20080;-76
2021/01/20 08:45:20;;;;;;;4.80;1.90;;;6.10;74.80;;;;;;4974389;28;20027;-75
2021/01/20 08:48:07;;;;;;;11.23;2.08;;;6.10;75.00;;;;;;4976149;28;20065;-74
2021/01/20 08:50:37;;;;;;;5.32;2.15;;;6.10;73.60;;;;;;4993012;28;20046;-76
2021/01/20 08:53:08;;;;;;;6.47;2.15;;;6.20;74.20;;;;;;4971914;28;20038;-76
2021/01/20 08:55:35;;;;;;;8.07;1.90;;;6.20;73.90;;;;;;4974214;28;20542;-76
2021/01/20 08:58:33;;;;;;;11.15;2.63;;;6.30;72.90;;;;;;4976033;28;20415;-76
2021/01/20 09:01:24;;;;;;;5.53;2.35;;;6.20;73.10;;;;;;4964222;28;20038;-76
2021/01/20 09:04:02;;;;;;;5.20;2.28;;;6.30;73.20;;;;;;4971190;28;20094;-76
2021/01/20 09:06:28;;;;;;;7.80;1.73;;;6.30;74.20;;;;;;4970365;28;20689;-77
2021/01/20 09:08:54;;;;;;;9.60;2.00;;;6.30;73.10;;;;;;4972903;28;20161;-77
2021/01/20 09:11:21;;;;;;;4.35;2.13;;;6.30;73.30;;;;;;4985060;28;20059;-78
2021/01/20 09:13:47;;;;;;;9.13;2.10;;;6.30;72.80;;;;;;4971657;28;20046;-77
2021/01/20 09:16:13;;;;;;;6.72;2.50;;;6.30;72.60;;;;;;4979254;28;20175;-78
2021/01/20 09:18:39;;;;;;;4.30;2.45;;;6.30;73.20;;;;;;4972506;28;20051;-77
2021/01/20 09:21:05;;;;;;;5.80;1.75;;;6.30;72.10;;;;;;4972093;28;20046;-78
2021/01/20 09:23:31;;;;;;;6.30;2.08;;;6.30;72.80;;;;;;4986098;28;20035;-77
2021/01/20 09:25:56;;;;;;;4.60;2.22;;;6.30;72.80;;;;;;4982967;28;20027;-77
2021/01/20 09:28:23;;;;;;;12.40;2.47;;;6.30;73.20;;;;;;4968538;28;20035;-77
2021/01/20 09:30:49;;;;;;;4.43;2.28;;;6.40;72.90;;;;;;4975619;28;20031;-77
2021/01/20 09:33:14;;;;;;;6.22;2.20;;;6.40;73.80;;;;;;4968955;28;20039;-78
2021/01/20 09:35:41;;;;;;;4.10;1.63;;;6.40;73.70;;;;;;4967348;28;20491;-78
2021/01/20 09:38:07;;;;;;;5.60;2.72;;;6.50;72.80;;;;;;4963774;28;20031;-78
2021/01/20 09:40:34;;;;;;;5.53;1.92;;;6.50;72.50;;;;;;4966321;28;20135;-77
2021/01/20 09:43:00;;;;;;;15.30;2.60;;;6.50;72.90;;;;;;4977319;28;20788;-78
2021/01/20 09:45:27;;;;;;;8.00;2.30;;;6.50;72.30;;;;;;4966590;28;20070;-77
2021/01/20 09:47:58;;;;;;;7.28;2.35;;;6.60;72.00;;;;;;4967883;28;20039;-76
2021/01/20 09:50:24;;;;;;;5.65;2.25;;;6.60;72.30;;;;;;4965719;28;20109;-77
2021/01/20 09:52:52;;;;;;;10.82;2.75;;;6.70;72.90;;;;;;4971184;28;20531;-76
2021/01/20 09:55:19;;;;;;;9.60;2.30;;;6.70;72.70;;;;;;4967474;28;20046;-75
2021/01/20 09:57:45;;;;;;;5.60;1.88;;;6.70;72.40;;;;;;4967272;28;20062;-76
2021/01/20 10:00:11;;;;;;;3.53;2.15;;;6.70;72.90;;;;;;4968009;28;20065;-76
2021/01/20 10:02:38;;;;;;;10.43;2.17;;;6.80;72.30;;;;;;4985829;28;20062;-76
2021/01/20 10:05:05;;;;;;;9.60;2.75;;;6.80;70.60;;;;;;4970606;28;20118;-77
2021/01/20 10:07:30;;;;;;;6.95;2.85;;;6.80;70.40;;;;;;4972221;28;20561;-77
2021/01/20 10:09:57;;;;;;;11.85;2.60;;;6.80;70.30;;;;;;4970686;28;20038;-77
2021/01/20 10:12:22;;;;;;;8.98;2.55;;;6.80;70.80;;;;;;4968415;28;20062;-78
2021/01/20 10:14:48;;;;;;;10.93;2.58;;;6.80;70.40;;;;;;4967977;28;20077;-79
2021/01/20 10:17:14;;;;;;;6.93;2.30;;;7.00;70.60;;;;;;4969946;28;20034;-78
2021/01/20 10:19:40;;;;;;;17.73;2.58;;;7.00;70.80;;;;;;4968993;28;20049;-80
2021/01/20 10:22:05;;;;;;;5.65;2.40;;;7.00;69.10;;;;;;4969318;28;20538;-80
2021/01/20 10:24:31;;;;;;;6.00;2.53;;;7.00;69.30;;;;;;4971842;28;20041;-79
2021/01/20 10:26:57;;;;;;;8.85;2.30;;;7.00;69.90;;;;;;4977127;28;20037;-78
2021/01/20 10:29:24;;;;;;;8.27;2.78;;;7.00;69.20;;;;;;4976439;28;20047;-77
2021/01/20 10:31:50;;;;;;;8.30;2.55;;;7.10;69.60;;;;;;4976347;28;20035;-80
2021/01/20 10:34:15;;;;;;;6.78;2.63;;;7.20;69.30;;;;;;4976719;28;20046;-79
2021/01/20 10:36:41;;;;;;;5.63;2.22;;;7.30;69.20;;;;;;4974093;28;20070;-78
2021/01/20 10:39:09;;;;;;;6.50;2.65;;;7.30;68.40;;;;;;4972077;28;20039;-80
2021/01/20 10:41:35;;;;;;;3.72;2.10;;;7.30;68.90;;;;;;4973499;28;20035;-79
2021/01/20 10:44:01;;;;;;;7.65;2.60;;;7.30;67.40;;;;;;4972681;28;20041;-79
2021/01/20 10:46:26;;;;;;;5.95;2.45;;;7.40;68.00;;;;;;4987227;28;20118;-79
2021/01/20 10:48:54;;;;;;;10.65;2.25;;;7.60;68.00;;;;;;4987132;28;20041;-77
2021/01/20 10:51:20;;;;;;;10.05;2.42;;;7.60;66.80;;;;;;4971532;28;20041;-78
2021/01/20 10:53:46;;;;;;;15.85;2.35;;;7.60;67.10;;;;;;4970253;28;20545;-79
2021/01/20 10:56:12;;;;;;;13.68;2.58;;;7.70;66.00;;;;;;4970085;28;20034;-78
2021/01/20 10:58:37;;;;;;;7.57;2.13;;;7.70;66.10;;;;;;4985930;28;20023;-78
2021/01/20 11:01:04;;;;;;;12.05;2.80;;;7.60;65.70;;;;;;4969169;28;20046;-79
2021/01/20 11:03:29;;;;;;;16.02;2.85;;;7.60;65.50;;;;;;4970932;28;20043;-79
2021/01/20 11:05:55;;;;;;;9.07;2.22;;;7.70;65.90;;;;;;4971612;28;20065;-78
2021/01/20 11:08:21;;;;;;;9.05;2.17;;;7.80;65.90;;;;;;4975173;28;20035;-79
2021/01/20 11:10:47;;;;;;;14.15;3.13;;;7.90;65.70;;;;;;4971475;28;20035;-76
2021/01/20 11:13:13;;;;;;;4.47;2.45;;;7.90;64.60;;;;;;4972846;28;20611;-77
2021/01/20 11:15:46;;;;;;;4.10;2.20;;;7.90;63.50;;;;;;4970531;28;20073;-78
2021/01/20 11:18:14;;;;;;;8.20;2.45;;;7.80;63.00;;;;;;4986379;28;20035;-78
2021/01/20 11:20:41;;;;;;;6.03;2.25;;;7.80;63.00;;;;;;4973435;28;20042;-78
2021/01/20 11:23:11;;;;;;;8.38;2.28;;;7.80;62.40;;;;;;4972932;28;20038;-78
2021/01/20 11:25:47;;;;;;;3.65;2.50;;;7.90;62.20;;;;;;4973571;28;20519;-78
2021/01/20 11:28:14;;;;;;;14.40;2.63;;;7.90;62.30;;;;;;4971190;28;20055;-78
2021/01/20 11:30:40;;;;;;;13.52;2.70;;;7.90;62.50;;;;;;4972284;28;20042;-78
2021/01/20 11:33:07;;;;;;;7.30;2.60;;;7.80;62.90;;;;;;4968189;28;20063;-78
2021/01/20 11:35:33;;;;;;;9.38;2.88;;;7.80;62.80;;;;;;4976691;28;20082;-78
2021/01/20 11:37:59;;;;;;;12.10;3.78;;;7.80;63.10;;;;;;4973012;28;20086;-78
2021/01/20 11:40:26;;;;;;;8.80;2.50;;;7.90;63.20;;;;;;4973207;28;20053;-77
2021/01/20 11:42:57;;;;;;;7.13;2.13;;;7.80;62.30;;;;;;4971174;28;20038;-78
2021/01/20 11:45:26;;;;;;;10.85;2.60;;;7.80;62.70;;;;;;4971649;28;20100;-78
2021/01/20 11:47:52;;;;;;;12.00;3.25;;;7.80;63.20;;;;;;4973215;28;20555;-78
2021/01/20 11:50:18;;;;;;;6.55;3.00;;;7.80;63.20;;;;;;4972919;28;20042;-78
2021/01/20 11:52:43;;;;;;;9.60;2.80;;;7.80;62.90;;;;;;4967839;28;20466;-79
2021/01/20 11:55:09;;;;;;;7.50;2.63;;;7.80;62.30;;;;;;4971434;28;20038;-78
2021/01/20 11:57:34;;;;;;;8.90;2.45;;;7.80;63.00;;;;;;4989614;28;20043;-79
2021/01/20 12:00:00;;;;;;;12.05;2.63;;;7.80;63.30;;;;;;4969981;28;20038;-78
2021/01/20 12:02:25;;;;;;;10.02;2.90;;;7.70;62.30;;;;;;4968278;28;20570;-78
2021/01/20 12:04:51;;;;;;;6.20;2.97;;;7.80;62.80;;;;;;4971173;28;20113;-76
2021/01/20 12:07:16;;;;;;;19.00;3.80;;;7.80;63.20;;;;;;4972006;28;20030;-79
2021/01/20 12:09:42;;;;;;;13.52;4.07;;;7.90;63.80;;;;;;4972748;28;20130;-78
2021/01/20 12:12:08;;;;;;;16.10;3.60;;;7.90;63.60;;;;;;4974261;28;20042;-78
2021/01/20 12:14:37;;;;;;;8.85;3.67;;;7.90;63.80;;;;;;4970850;28;20035;-77
2021/01/20 12:17:04;;;;;;;11.20;4.38;;;7.90;62.90;;;;;;4970836;28;20090;-77
2021/01/20 12:19:29;;;;;;;11.57;3.53;;;7.80;62.40;;;;;;4969332;28;20090;-77
2021/01/20 12:21:55;;;;;;;10.02;3.28;;;7.80;62.60;;;;;;4974667;28;20675;-77
2021/01/20 12:24:20;;;;;;;11.05;3.38;;;7.90;63.40;;;;;;4971171;28;20139;-76
2021/01/20 12:26:46;;;;;;;21.45;3.25;;;7.90;62.90;;;;;;4971725;28;20380;-77
2021/01/20 12:29:11;;;;;;;15.18;3.00;;;8.00;63.00;;;;;;4970305;28;20338;-77
2021/01/20 12:31:37;;;;;;;12.30;3.47;;;8.00;63.80;;;;;;4973454;28;20039;-77
2021/01/20 12:34:03;;;;;;;12.75;3.22;;;8.00;63.80;;;;;;4972889;28;20142;-77
2021/01/20 12:36:28;;;;;;;7.45;2.95;;;8.10;62.90;;;;;;4986717;28;20122;-79
2021/01/20 12:38:54;;;;;;;8.10;2.85;;;8.10;63.90;;;;;;4973994;28;20027;-78
2021/01/20 12:41:20;;;;;;;14.85;3.78;;;8.10;62.70;;;;;;4973158;28;20051;-77
2021/01/20 12:43:45;;;;;;;8.13;3.13;;;8.10;62.80;;;;;;4975636;28;20038;-76
2021/01/20 12:46:11;;;;;;;8.05;2.47;;;8.10;63.00;;;;;;4988577;28;20057;-77
2021/01/20 12:48:36;;;;;;;9.80;3.42;;;8.10;62.70;;;;;;4976287;28;20513;-77
2021/01/20 12:51:02;;;;;;;12.13;2.70;;;8.20;64.20;;;;;;4974742;28;20104;-76
2021/01/20 12:53:27;;;;;;;8.82;3.25;;;8.20;62.90;;;;;;4974538;28;20638;-78
2021/01/20 12:55:53;;;;;;;9.15;3.67;;;8.20;63.20;;;;;;4974039;28;20415;-76
2021/01/20 12:58:18;;;;;;;9.43;3.38;;;8.10;63.30;;;;;;4974053;28;20042;-77